sensor_id;sensor_type;location;lat;lon;timestamp;P1;durP1;ratioP1;P2;durP2;ratioP2
16426;SDS011;8322;-33.900;151.170;2022-07-23T00:01:30;7.35;;;4.57;;
16426;SDS011;8322;-33.900;151.170;2022-07-23T00:04:01;7.22;;;4.47;;
16426;SDS011;8322;-33.900;151.170;2022-07-23T00:06:31;7.25;;;4.88;;
16426;SDS011;8322;-33.900;151.170;2022-07-23T00:09:01;6.63;;;5.32;;
16426;SDS011;8322;-33.900;151.170;2022-07-23T00:11:30;8.48;;;5.22;;
16426;SDS011;8322;-33.900;151.170;2022-07-23T00:14:00;8.25;;;5.13;;
16426;SDS011;8322;-33.900;151.170;2022-07-23T00:16:30;8.40;;;5.60;;
16426;SDS011;8322;-33.900;151.170;2022-07-23T00:19:01;8.35;;;6.13;;
16426;SDS011;8322;-33.900;151.170;2022-07-23T00:21:31;8.50;;;5.22;;
16426;SDS011;8322;-33.900;151.170;2022-07-23T00:24:01;9.80;;;5.57;;
16426;SDS011;8322;-33.900;151.170;2022-07-23T00:26:31;6.05;;;4.50;;
16426;SDS011;8322;-33.900;151.170;2022-07-23T00:29:01;6.80;;;4.60;;
16426;SDS011;8322;-33.900;151.170;2022-07-23T00:31:30;8.73;;;4.53;;
16426;SDS011;8322;-33.900;151.170;2022-07-23T00:34:02;7.90;;;4.80;;
16426;SDS011;8322;-33.900;151.170;2022-07-23T00:36:31;7.45;;;4.32;;
16426;SDS011;8322;-33.900;151.170;2022-07-23T00:39:01;5.50;;;4.38;;
16426;SDS011;8322;-33.900;151.170;2022-07-23T00:41:31;6.88;;;4.03;;
16426;SDS011;8322;-33.900;151.170;2022-07-23T00:44:14;6.95;;;4.32;;
16426;SDS011;8322;-33.900;151.170;2022-07-23T00:46:45;5.53;;;4.40;;
16426;SDS011;8322;-33.900;151.170;2022-07-23T00:49:17;7.40;;;4.05;;
16426;SDS011;8322;-33.900;151.170;2022-07-23T00:51:46;6.22;;;3.95;;
16426;SDS011;8322;-33.900;151.170;2022-07-23T00:54:17;6.18;;;4.03;;
16426;SDS011;8322;-33.900;151.170;2022-07-23T00:56:47;7.15;;;4.47;;
16426;SDS011;8322;-33.900;151.170;2022-07-23T00:59:16;7.70;;;4.10;;
16426;SDS011;8322;-33.900;151.170;2022-07-23T01:01:46;6.25;;;4.03;;
16426;SDS011;8322;-33.900;151.170;2022-07-23T01:04:18;6.05;;;3.83;;
16426;SDS011;8322;-33.900;151.170;2022-07-23T01:06:48;7.10;;;4.50;;
16426;SDS011;8322;-33.900;151.170;2022-07-23T01:09:17;7.15;;;4.05;;
16426;SDS011;8322;-33.900;151.170;2022-07-23T01:11:47;7.85;;;4.22;;
16426;SDS011;8322;-33.900;151.170;2022-07-23T01:14:17;7.70;;;4.70;;
16426;SDS011;8322;-33.900;151.170;2022-07-23T01:16:47;6.78;;;4.28;;
16426;SDS011;8322;-33.900;151.170;2022-07-23T01:19:19;6.55;;;4.50;;
16426;SDS011;8322;-33.900;151.170;2022-07-23T01:21:50;7.60;;;3.97;;
16426;SDS011;8322;-33.900;151.170;2022-07-23T01:24:22;5.82;;;4.00;;
16426;SDS011;8322;-33.900;151.170;2022-07-23T01:26:52;6.40;;;4.22;;
16426;SDS011;8322;-33.900;151.170;2022-07-23T01:29:22;5.45;;;4.30;;
16426;SDS011;8322;-33.900;151.170;2022-07-23T01:31:51;6.25;;;4.03;;
16426;SDS011;8322;-33.900;151.170;2022-07-23T01:34:21;5.75;;;4.22;;
16426;SDS011;8322;-33.900;151.170;2022-07-23T01:36:51;6.40;;;3.35;;
16426;SDS011;8322;-33.900;151.170;2022-07-23T01:39:22;6.20;;;2.90;;
16426;SDS011;8322;-33.900;151.170;2022-07-23T01:41:52;6.80;;;3.20;;
16426;SDS011;8322;-33.900;151.170;2022-07-23T01:44:22;5.82;;;3.25;;
16426;SDS011;8322;-33.900;151.170;2022-07-23T01:46:51;6.45;;;3.00;;
16426;SDS011;8322;-33.900;151.170;2022-07-23T01:49:21;6.07;;;3.55;;
16426;SDS011;8322;-33.900;151.170;2022-07-23T01:51:50;5.75;;;3.22;;
16426;SDS011;8322;-33.900;151.170;2022-07-23T01:54:34;4.85;;;3.35;;
16426;SDS011;8322;-33.900;151.170;2022-07-23T01:57:04;5.05;;;2.97;;
16426;SDS011;8322;-33.900;151.170;2022-07-23T01:59:33;5.10;;;3.45;;
16426;SDS011;8322;-33.900;151.170;2022-07-23T02:02:05;5.65;;;3.42;;
16426;SDS011;8322;-33.900;151.170;2022-07-23T02:04:35;6.80;;;3.58;;
16426;SDS011;8322;-33.900;151.170;2022-07-23T02:07:04;5.78;;;3.95;;
16426;SDS011;8322;-33.900;151.170;2022-07-23T02:09:36;6.88;;;4.07;;
16426;SDS011;8322;-33.900;151.170;2022-07-23T02:12:06;5.82;;;3.90;;
16426;SDS011;8322;-33.900;151.170;2022-07-23T02:14:36;8.25;;;3.90;;
16426;SDS011;8322;-33.900;151.170;2022-07-23T02:17:05;3.67;;;2.72;;
16426;SDS011;8322;-33.900;151.170;2022-07-23T02:19:35;4.45;;;2.10;;
16426;SDS011;8322;-33.900;151.170;2022-07-23T02:22:05;6.00;;;1.80;;
16426;SDS011;8322;-33.900;151.170;2022-07-23T02:24:36;3.75;;;1.40;;
16426;SDS011;8322;-33.900;151.170;2022-07-23T02:27:06;3.95;;;1.30;;
16426;SDS011;8322;-33.900;151.170;2022-07-23T02:29:36;1.88;;;1.13;;
16426;SDS011;8322;-33.900;151.170;2022-07-23T02:32:05;3.10;;;1.40;;
16426;SDS011;8322;-33.900;151.170;2022-07-23T02:34:35;3.40;;;1.50;;
16426;SDS011;8322;-33.900;151.170;2022-07-23T02:37:05;3.40;;;1.23;;
16426;SDS011;8322;-33.900;151.170;2022-07-23T02:39:36;3.72;;;1.30;;
16426;SDS011;8322;-33.900;151.170;2022-07-23T02:42:06;4.22;;;1.30;;
16426;SDS011;8322;-33.900;151.170;2022-07-23T02:44:36;3.35;;;1.73;;
16426;SDS011;8322;-33.900;151.170;2022-07-23T02:47:05;4.07;;;1.25;;
16426;SDS011;8322;-33.900;151.170;2022-07-23T02:49:35;4.40;;;1.10;;
16426;SDS011;8322;-33.900;151.170;2022-07-23T02:52:05;3.63;;;1.40;;
16426;SDS011;8322;-33.900;151.170;2022-07-23T02:54:38;3.63;;;1.58;;
16426;SDS011;8322;-33.900;151.170;2022-07-23T02:57:07;3.95;;;1.20;;
16426;SDS011;8322;-33.900;151.170;2022-07-23T02:59:37;2.50;;;1.38;;
16426;SDS011;8322;-33.900;151.170;2022-07-23T03:02:07;3.55;;;1.00;;
16426;SDS011;8322;-33.900;151.170;2022-07-23T03:04:36;3.03;;;0.80;;
16426;SDS011;8322;-33.900;151.170;2022-07-23T03:07:08;2.30;;;1.25;;
16426;SDS011;8322;-33.900;151.170;2022-07-23T03:09:39;3.00;;;1.10;;
16426;SDS011;8322;-33.900;151.170;2022-07-23T03:12:09;4.07;;;1.40;;
16426;SDS011;8322;-33.900;151.170;2022-07-23T03:14:39;3.63;;;1.17;;
16426;SDS011;8322;-33.900;151.170;2022-07-23T03:17:09;3.40;;;1.35;;
16426;SDS011;8322;-33.900;151.170;2022-07-23T03:19:38;5.85;;;0.98;;
16426;SDS011;8322;-33.900;151.170;2022-07-23T03:22:08;2.70;;;1.20;;
16426;SDS011;8322;-33.900;151.170;2022-07-23T03:24:40;1.33;;;0.80;;
16426;SDS011;8322;-33.900;151.170;2022-07-23T03:27:25;1.02;;;0.60;;
16426;SDS011;8322;-33.900;151.170;2022-07-23T03:29:55;1.35;;;0.80;;
16426;SDS011;8322;-33.900;151.170;2022-07-23T03:32:25;1.63;;;0.93;;
16426;SDS011;8322;-33.900;151.170;2022-07-23T03:34:54;0.50;;;0.50;;
16426;SDS011;8322;-33.900;151.170;2022-07-23T03:37:24;1.85;;;0.70;;
16426;SDS011;8322;-33.900;151.170;2022-07-23T03:39:56;1.10;;;0.70;;
16426;SDS011;8322;-33.900;151.170;2022-07-23T03:42:25;0.73;;;0.70;;
16426;SDS011;8322;-33.900;151.170;2022-07-23T03:44:56;1.15;;;0.80;;
16426;SDS011;8322;-33.900;151.170;2022-07-23T03:47:25;1.40;;;0.70;;
16426;SDS011;8322;-33.900;151.170;2022-07-23T03:49:55;1.02;;;0.80;;
16426;SDS011;8322;-33.900;151.170;2022-07-23T03:52:25;1.75;;;0.60;;
16426;SDS011;8322;-33.900;151.170;2022-07-23T03:54:56;1.33;;;0.98;;
16426;SDS011;8322;-33.900;151.170;2022-07-23T03:57:26;1.40;;;0.80;;
16426;SDS011;8322;-33.900;151.170;2022-07-23T03:59:56;0.57;;;0.52;;
16426;SDS011;8322;-33.900;151.170;2022-07-23T04:02:25;1.05;;;0.68;;
16426;SDS011;8322;-33.900;151.170;2022-07-23T04:04:55;0.90;;;0.57;;
16426;SDS011;8322;-33.900;151.170;2022-07-23T04:07:25;1.38;;;0.70;;
16426;SDS011;8322;-33.900;151.170;2022-07-23T04:09:57;1.38;;;0.65;;
16426;SDS011;8322;-33.900;151.170;2022-07-23T04:12:26;0.95;;;0.57;;
16426;SDS011;8322;-33.900;151.170;2022-07-23T04:14:56;3.05;;;0.73;;
16426;SDS011;8322;-33.900;151.170;2022-07-23T04:17:26;2.78;;;0.90;;
16426;SDS011;8322;-33.900;151.170;2022-07-23T04:19:55;1.98;;;1.20;;
16426;SDS011;8322;-33.900;151.170;2022-07-23T04:22:25;2.50;;;0.80;;
16426;SDS011;8322;-33.900;151.170;2022-07-23T04:24:56;2.85;;;0.85;;
16426;SDS011;8322;-33.900;151.170;2022-07-23T04:27:26;2.17;;;0.65;;
16426;SDS011;8322;-33.900;151.170;2022-07-23T04:29:56;2.58;;;0.80;;
16426;SDS011;8322;-33.900;151.170;2022-07-23T04:32:25;1.73;;;0.70;;
16426;SDS011;8322;-33.900;151.170;2022-07-23T04:34:55;2.70;;;0.77;;
16426;SDS011;8322;-33.900;151.170;2022-07-23T04:37:25;1.13;;;0.80;;
16426;SDS011;8322;-33.900;151.170;2022-07-23T04:39:56;2.75;;;0.73;;
16426;SDS011;8322;-33.900;151.170;2022-07-23T04:42:26;1.77;;;1.08;;
16426;SDS011;8322;-33.900;151.170;2022-07-23T04:44:56;2.05;;;0.70;;
16426;SDS011;8322;-33.900;151.170;2022-07-23T04:47:25;1.38;;;0.93;;
16426;SDS011;8322;-33.900;151.170;2022-07-23T04:49:55;1.30;;;1.20;;
16426;SDS011;8322;-33.900;151.170;2022-07-23T04:52:25;1.10;;;1.00;;
16426;SDS011;8322;-33.900;151.170;2022-07-23T04:54:56;1.80;;;0.70;;
16426;SDS011;8322;-33.900;151.170;2022-07-23T04:57:26;2.75;;;1.13;;
16426;SDS011;8322;-33.900;151.170;2022-07-23T04:59:56;0.70;;;0.70;;
16426;SDS011;8322;-33.900;151.170;2022-07-23T05:02:25;1.83;;;0.82;;
16426;SDS011;8322;-33.900;151.170;2022-07-23T05:04:55;0.70;;;0.70;;
16426;SDS011;8322;-33.900;151.170;2022-07-23T05:07:25;1.27;;;0.98;;
16426;SDS011;8322;-33.900;151.170;2022-07-23T05:09:56;1.08;;;0.70;;
16426;SDS011;8322;-33.900;151.170;2022-07-23T05:12:26;0.93;;;0.70;;
16426;SDS011;8322;-33.900;151.170;2022-07-23T05:14:55;2.85;;;0.93;;
16426;SDS011;8322;-33.900;151.170;2022-07-23T05:17:25;1.85;;;0.80;;
16426;SDS011;8322;-33.900;151.170;2022-07-23T05:19:55;1.55;;;0.88;;
16426;SDS011;8322;-33.900;151.170;2022-07-23T05:22:24;2.17;;;0.95;;
16426;SDS011;8322;-33.900;151.170;2022-07-23T05:24:54;1.75;;;1.02;;
16426;SDS011;8322;-33.900;151.170;2022-07-23T05:27:25;2.42;;;0.82;;
16426;SDS011;8322;-33.900;151.170;2022-07-23T05:29:55;1.42;;;0.63;;
16426;SDS011;8322;-33.900;151.170;2022-07-23T05:32:25;0.80;;;0.65;;
16426;SDS011;8322;-33.900;151.170;2022-07-23T05:34:54;2.03;;;0.82;;
16426;SDS011;8322;-33.900;151.170;2022-07-23T05:37:24;0.95;;;0.60;;
16426;SDS011;8322;-33.900;151.170;2022-07-23T05:39:54;2.28;;;0.90;;
16426;SDS011;8322;-33.900;151.170;2022-07-23T05:42:25;4.15;;;0.88;;
16426;SDS011;8322;-33.900;151.170;2022-07-23T05:44:55;1.42;;;0.80;;
16426;SDS011;8322;-33.900;151.170;2022-07-23T05:47:25;1.30;;;0.95;;
16426;SDS011;8322;-33.900;151.170;2022-07-23T05:49:54;1.58;;;1.10;;
16426;SDS011;8322;-33.900;151.170;2022-07-23T05:52:24;1.92;;;1.35;;
16426;SDS011;8322;-33.900;151.170;2022-07-23T05:54:54;2.95;;;1.10;;
16426;SDS011;8322;-33.900;151.170;2022-07-23T05:57:25;1.70;;;1.17;;
16426;SDS011;8322;-33.900;151.170;2022-07-23T05:59:55;2.70;;;1.08;;
16426;SDS011;8322;-33.900;151.170;2022-07-23T06:02:25;3.60;;;1.20;;
16426;SDS011;8322;-33.900;151.170;2022-07-23T06:04:54;4.45;;;1.98;;
16426;SDS011;8322;-33.900;151.170;2022-07-23T06:07:24;2.30;;;1.45;;
16426;SDS011;8322;-33.900;151.170;2022-07-23T06:09:54;2.58;;;1.73;;
16426;SDS011;8322;-33.900;151.170;2022-07-23T06:12:25;3.47;;;2.28;;
16426;SDS011;8322;-33.900;151.170;2022-07-23T06:14:55;4.88;;;4.43;;
16426;SDS011;8322;-33.900;151.170;2022-07-23T06:17:25;6.40;;;5.75;;
16426;SDS011;8322;-33.900;151.170;2022-07-23T06:19:55;6.93;;;6.30;;
16426;SDS011;8322;-33.900;151.170;2022-07-23T06:22:24;7.05;;;5.30;;
16426;SDS011;8322;-33.900;151.170;2022-07-23T06:24:54;5.22;;;4.10;;
16426;SDS011;8322;-33.900;151.170;2022-07-23T06:27:25;5.88;;;3.70;;
16426;SDS011;8322;-33.900;151.170;2022-07-23T06:29:55;3.67;;;2.17;;
16426;SDS011;8322;-33.900;151.170;2022-07-23T06:32:25;4.20;;;1.98;;
16426;SDS011;8322;-33.900;151.170;2022-07-23T06:34:55;4.10;;;2.17;;
16426;SDS011;8322;-33.900;151.170;2022-07-23T06:37:24;5.30;;;2.20;;
16426;SDS011;8322;-33.900;151.170;2022-07-23T06:39:54;3.25;;;1.70;;
16426;SDS011;8322;-33.900;151.170;2022-07-23T06:42:25;3.05;;;1.63;;
16426;SDS011;8322;-33.900;151.170;2022-07-23T06:44:55;5.13;;;1.83;;
16426;SDS011;8322;-33.900;151.170;2022-07-23T06:47:25;2.42;;;1.30;;
16426;SDS011;8322;-33.900;151.170;2022-07-23T06:49:54;5.18;;;1.45;;
16426;SDS011;8322;-33.900;151.170;2022-07-23T06:52:24;4.97;;;1.65;;
16426;SDS011;8322;-33.900;151.170;2022-07-23T06:54:54;4.18;;;2.00;;
16426;SDS011;8322;-33.900;151.170;2022-07-23T06:57:25;3.60;;;1.95;;
16426;SDS011;8322;-33.900;151.170;2022-07-23T06:59:55;3.55;;;2.10;;
16426;SDS011;8322;-33.900;151.170;2022-07-23T07:02:25;2.67;;;1.90;;
16426;SDS011;8322;-33.900;151.170;2022-07-23T07:04:54;3.38;;;1.85;;
16426;SDS011;8322;-33.900;151.170;2022-07-23T07:07:24;5.03;;;2.35;;
16426;SDS011;8322;-33.900;151.170;2022-07-23T07:09:54;3.55;;;2.10;;
16426;SDS011;8322;-33.900;151.170;2022-07-23T07:12:25;4.82;;;2.55;;
16426;SDS011;8322;-33.900;151.170;2022-07-23T07:14:55;4.57;;;2.60;;
16426;SDS011;8322;-33.900;151.170;2022-07-23T07:17:24;3.75;;;2.60;;
16426;SDS011;8322;-33.900;151.170;2022-07-23T07:19:54;3.90;;;2.85;;
16426;SDS011;8322;-33.900;151.170;2022-07-23T07:22:24;6.70;;;2.58;;
16426;SDS011;8322;-33.900;151.170;2022-07-23T07:24:53;5.65;;;2.75;;
16426;SDS011;8322;-33.900;151.170;2022-07-23T07:27:25;7.35;;;2.92;;
16426;SDS011;8322;-33.900;151.170;2022-07-23T07:29:55;4.72;;;2.65;;
16426;SDS011;8322;-33.900;151.170;2022-07-23T07:32:25;5.65;;;2.90;;
16426;SDS011;8322;-33.900;151.170;2022-07-23T07:34:54;5.60;;;3.33;;
16426;SDS011;8322;-33.900;151.170;2022-07-23T07:37:24;7.50;;;3.50;;
16426;SDS011;8322;-33.900;151.170;2022-07-23T07:39:54;7.50;;;3.95;;
16426;SDS011;8322;-33.900;151.170;2022-07-23T07:42:25;7.30;;;4.00;;
16426;SDS011;8322;-33.900;151.170;2022-07-23T07:44:55;9.65;;;4.72;;
16426;SDS011;8322;-33.900;151.170;2022-07-23T07:47:25;8.48;;;5.10;;
16426;SDS011;8322;-33.900;151.170;2022-07-23T07:49:55;8.57;;;5.72;;
16426;SDS011;8322;-33.900;151.170;2022-07-23T07:52:25;7.38;;;5.78;;
16426;SDS011;8322;-33.900;151.170;2022-07-23T07:54:55;9.15;;;5.20;;
16426;SDS011;8322;-33.900;151.170;2022-07-23T07:57:26;7.10;;;4.90;;
16426;SDS011;8322;-33.900;151.170;2022-07-23T07:59:56;7.47;;;4.43;;
16426;SDS011;8322;-33.900;151.170;2022-07-23T08:02:25;7.18;;;4.15;;
16426;SDS011;8322;-33.900;151.170;2022-07-23T08:04:55;6.32;;;3.88;;
16426;SDS011;8322;-33.900;151.170;2022-07-23T08:07:25;5.18;;;3.92;;
16426;SDS011;8322;-33.900;151.170;2022-07-23T08:09:55;7.22;;;4.53;;
16426;SDS011;8322;-33.900;151.170;2022-07-23T08:12:26;6.07;;;4.80;;
16426;SDS011;8322;-33.900;151.170;2022-07-23T08:14:56;6.72;;;4.35;;
16426;SDS011;8322;-33.900;151.170;2022-07-23T08:17:25;7.47;;;4.88;;
16426;SDS011;8322;-33.900;151.170;2022-07-23T08:19:55;6.13;;;4.70;;
16426;SDS011;8322;-33.900;151.170;2022-07-23T08:22:25;10.90;;;4.60;;
16426;SDS011;8322;-33.900;151.170;2022-07-23T08:24:55;8.85;;;5.10;;
16426;SDS011;8322;-33.900;151.170;2022-07-23T08:27:26;7.45;;;5.07;;
16426;SDS011;8322;-33.900;151.170;2022-07-23T08:29:56;6.70;;;4.68;;
16426;SDS011;8322;-33.900;151.170;2022-07-23T08:32:26;6.28;;;4.43;;
16426;SDS011;8322;-33.900;151.170;2022-07-23T08:34:55;8.02;;;4.28;;
16426;SDS011;8322;-33.900;151.170;2022-07-23T08:37:25;6.70;;;5.20;;
16426;SDS011;8322;-33.900;151.170;2022-07-23T08:39:55;9.32;;;5.70;;
16426;SDS011;8322;-33.900;151.170;2022-07-23T08:42:26;8.88;;;5.40;;
16426;SDS011;8322;-33.900;151.170;2022-07-23T08:44:56;8.75;;;5.13;;
16426;SDS011;8322;-33.900;151.170;2022-07-23T08:47:26;7.40;;;5.13;;
16426;SDS011;8322;-33.900;151.170;2022-07-23T08:49:56;8.07;;;5.00;;
16426;SDS011;8322;-33.900;151.170;2022-07-23T08:52:27;4.97;;;3.80;;
16426;SDS011;8322;-33.900;151.170;2022-07-23T08:54:58;8.60;;;4.30;;
16426;SDS011;8322;-33.900;151.170;2022-07-23T08:57:30;7.97;;;4.75;;
16426;SDS011;8322;-33.900;151.170;2022-07-23T08:59:59;8.88;;;5.03;;
16426;SDS011;8322;-33.900;151.170;2022-07-23T09:02:29;11.60;;;5.80;;
16426;SDS011;8322;-33.900;151.170;2022-07-23T09:04:59;9.48;;;5.97;;
16426;SDS011;8322;-33.900;151.170;2022-07-23T09:07:29;10.57;;;5.45;;
16426;SDS011;8322;-33.900;151.170;2022-07-23T09:10:05;10.82;;;6.10;;
16426;SDS011;8322;-33.900;151.170;2022-07-23T09:12:37;9.07;;;6.20;;
16426;SDS011;8322;-33.900;151.170;2022-07-23T09:15:07;11.25;;;6.63;;
16426;SDS011;8322;-33.900;151.170;2022-07-23T09:17:37;12.05;;;6.78;;
16426;SDS011;8322;-33.900;151.170;2022-07-23T09:20:08;13.40;;;7.80;;
16426;SDS011;8322;-33.900;151.170;2022-07-23T09:22:38;12.75;;;7.63;;
16426;SDS011;8322;-33.900;151.170;2022-07-23T09:25:09;15.43;;;8.68;;
16426;SDS011;8322;-33.900;151.170;2022-07-23T09:27:48;15.98;;;8.68;;
16426;SDS011;8322;-33.900;151.170;2022-07-23T09:30:18;15.60;;;8.10;;
16426;SDS011;8322;-33.900;151.170;2022-07-23T09:33:04;11.20;;;6.82;;
16426;SDS011;8322;-33.900;151.170;2022-07-23T09:35:49;9.07;;;5.70;;
16426;SDS011;8322;-33.900;151.170;2022-07-23T09:38:20;11.55;;;6.43;;
16426;SDS011;8322;-33.900;151.170;2022-07-23T09:43:35;10.65;;;5.70;;
16426;SDS011;8322;-33.900;151.170;2022-07-23T09:46:18;8.55;;;6.28;;
16426;SDS011;8322;-33.900;151.170;2022-07-23T09:48:48;9.35;;;6.20;;
16426;SDS011;8322;-33.900;151.170;2022-07-23T09:51:19;8.90;;;6.40;;
16426;SDS011;8322;-33.900;151.170;2022-07-23T09:53:53;8.73;;;6.57;;
16426;SDS011;8322;-33.900;151.170;2022-07-23T09:56:23;10.05;;;6.43;;
16426;SDS011;8322;-33.900;151.170;2022-07-23T09:58:55;9.00;;;6.53;;
16426;SDS011;8322;-33.900;151.170;2022-07-23T10:01:35;9.95;;;7.13;;
16426;SDS011;8322;-33.900;151.170;2022-07-23T10:04:05;8.38;;;6.30;;
16426;SDS011;8322;-33.900;151.170;2022-07-23T10:06:35;10.55;;;7.13;;
16426;SDS011;8322;-33.900;151.170;2022-07-23T10:09:05;10.38;;;7.03;;
16426;SDS011;8322;-33.900;151.170;2022-07-23T10:11:35;10.90;;;7.25;;
16426;SDS011;8322;-33.900;151.170;2022-07-23T10:14:07;10.65;;;7.03;;
16426;SDS011;8322;-33.900;151.170;2022-07-23T10:16:38;13.25;;;7.25;;
16426;SDS011;8322;-33.900;151.170;2022-07-23T10:19:10;11.02;;;6.93;;
16426;SDS011;8322;-33.900;151.170;2022-07-23T10:21:40;8.95;;;6.45;;
16426;SDS011;8322;-33.900;151.170;2022-07-23T10:24:15;9.20;;;6.90;;
16426;SDS011;8322;-33.900;151.170;2022-07-23T10:26:48;9.00;;;7.28;;
16426;SDS011;8322;-33.900;151.170;2022-07-23T10:29:27;9.65;;;6.07;;
16426;SDS011;8322;-33.900;151.170;2022-07-23T10:32:00;10.23;;;6.40;;
16426;SDS011;8322;-33.900;151.170;2022-07-23T10:34:35;8.80;;;6.10;;
16426;SDS011;8322;-33.900;151.170;2022-07-23T10:37:07;8.98;;;6.45;;
16426;SDS011;8322;-33.900;151.170;2022-07-23T10:39:43;9.50;;;6.63;;
16426;SDS011;8322;-33.900;151.170;2022-07-23T10:42:13;8.98;;;6.57;;
16426;SDS011;8322;-33.900;151.170;2022-07-23T10:44:45;8.95;;;6.38;;
16426;SDS011;8322;-33.900;151.170;2022-07-23T10:47:21;9.52;;;6.57;;
16426;SDS011;8322;-33.900;151.170;2022-07-23T10:50:17;9.20;;;6.40;;
16426;SDS011;8322;-33.900;151.170;2022-07-23T10:55:47;9.63;;;5.93;;
16426;SDS011;8322;-33.900;151.170;2022-07-23T10:58:20;8.15;;;6.03;;
16426;SDS011;8322;-33.900;151.170;2022-07-23T11:00:52;9.30;;;6.82;;
16426;SDS011;8322;-33.900;151.170;2022-07-23T11:03:29;23.48;;;15.55;;
16426;SDS011;8322;-33.900;151.170;2022-07-23T11:06:02;19.73;;;11.82;;
16426;SDS011;8322;-33.900;151.170;2022-07-23T11:08:32;15.13;;;10.07;;
16426;SDS011;8322;-33.900;151.170;2022-07-23T11:11:09;21.42;;;16.17;;
16426;SDS011;8322;-33.900;151.170;2022-07-23T11:13:40;17.15;;;11.63;;
16426;SDS011;8322;-33.900;151.170;2022-07-23T11:16:26;18.10;;;10.98;;
16426;SDS011;8322;-33.900;151.170;2022-07-23T11:19:02;18.42;;;10.05;;
16426;SDS011;8322;-33.900;151.170;2022-07-23T11:21:45;14.05;;;9.52;;
16426;SDS011;8322;-33.900;151.170;2022-07-23T11:24:16;11.55;;;9.00;;
16426;SDS011;8322;-33.900;151.170;2022-07-23T11:26:50;13.20;;;8.52;;
16426;SDS011;8322;-33.900;151.170;2022-07-23T11:29:40;14.05;;;8.65;;
16426;SDS011;8322;-33.900;151.170;2022-07-23T11:32:22;13.57;;;9.00;;
16426;SDS011;8322;-33.900;151.170;2022-07-23T11:34:52;14.52;;;10.48;;
16426;SDS011;8322;-33.900;151.170;2022-07-23T11:37:35;17.13;;;11.18;;
16426;SDS011;8322;-33.900;151.170;2022-07-23T11:40:09;13.15;;;10.18;;
16426;SDS011;8322;-33.900;151.170;2022-07-23T11:42:39;16.85;;;11.00;;
16426;SDS011;8322;-33.900;151.170;2022-07-23T11:45:09;17.95;;;12.30;;
16426;SDS011;8322;-33.900;151.170;2022-07-23T11:47:40;23.70;;;14.77;;
16426;SDS011;8322;-33.900;151.170;2022-07-23T11:50:10;20.83;;;13.68;;
16426;SDS011;8322;-33.900;151.170;2022-07-23T11:52:40;19.20;;;12.38;;
16426;SDS011;8322;-33.900;151.170;2022-07-23T11:55:10;17.65;;;11.60;;
16426;SDS011;8322;-33.900;151.170;2022-07-23T11:57:42;14.82;;;9.20;;
16426;SDS011;8322;-33.900;151.170;2022-07-23T12:00:12;16.48;;;9.82;;
16426;SDS011;8322;-33.900;151.170;2022-07-23T12:02:45;16.83;;;11.38;;
16426;SDS011;8322;-33.900;151.170;2022-07-23T12:05:15;15.77;;;10.95;;
16426;SDS011;8322;-33.900;151.170;2022-07-23T12:07:45;13.93;;;10.88;;
16426;SDS011;8322;-33.900;151.170;2022-07-23T12:10:16;12.48;;;9.40;;
16426;SDS011;8322;-33.900;151.170;2022-07-23T12:12:46;11.68;;;8.68;;
16426;SDS011;8322;-33.900;151.170;2022-07-23T12:15:17;9.75;;;7.28;;
16426;SDS011;8322;-33.900;151.170;2022-07-23T12:17:50;12.07;;;7.68;;
16426;SDS011;8322;-33.900;151.170;2022-07-23T12:20:21;11.50;;;7.55;;
16426;SDS011;8322;-33.900;151.170;2022-07-23T12:22:52;12.25;;;7.50;;
16426;SDS011;8322;-33.900;151.170;2022-07-23T12:25:23;10.07;;;8.23;;
16426;SDS011;8322;-33.900;151.170;2022-07-23T12:27:59;13.63;;;8.68;;
16426;SDS011;8322;-33.900;151.170;2022-07-23T12:30:30;12.38;;;7.68;;
16426;SDS011;8322;-33.900;151.170;2022-07-23T12:33:03;9.13;;;7.50;;
16426;SDS011;8322;-33.900;151.170;2022-07-23T12:35:34;11.18;;;7.50;;
16426;SDS011;8322;-33.900;151.170;2022-07-23T12:38:05;9.82;;;7.20;;
16426;SDS011;8322;-33.900;151.170;2022-07-23T12:40:36;8.65;;;6.70;;
16426;SDS011;8322;-33.900;151.170;2022-07-23T12:43:06;10.65;;;6.90;;
16426;SDS011;8322;-33.900;151.170;2022-07-23T12:45:43;7.80;;;6.53;;
16426;SDS011;8322;-33.900;151.170;2022-07-23T12:48:22;8.10;;;6.68;;
16426;SDS011;8322;-33.900;151.170;2022-07-23T12:50:53;8.93;;;6.22;;
16426;SDS011;8322;-33.900;151.170;2022-07-23T12:53:24;7.68;;;6.32;;
16426;SDS011;8322;-33.900;151.170;2022-07-23T12:56:01;8.80;;;6.70;;
16426;SDS011;8322;-33.900;151.170;2022-07-23T12:58:41;10.60;;;7.20;;
16426;SDS011;8322;-33.900;151.170;2022-07-23T13:01:21;9.27;;;7.03;;
16426;SDS011;8322;-33.900;151.170;2022-07-23T13:03:59;7.72;;;6.75;;
16426;SDS011;8322;-33.900;151.170;2022-07-23T13:06:30;9.35;;;7.05;;
16426;SDS011;8322;-33.900;151.170;2022-07-23T13:09:00;10.05;;;6.85;;
16426;SDS011;8322;-33.900;151.170;2022-07-23T13:11:30;10.30;;;7.88;;
16426;SDS011;8322;-33.900;151.170;2022-07-23T13:14:00;11.52;;;8.43;;
16426;SDS011;8322;-33.900;151.170;2022-07-23T13:16:30;13.82;;;9.93;;
16426;SDS011;8322;-33.900;151.170;2022-07-23T13:19:02;12.80;;;8.95;;
16426;SDS011;8322;-33.900;151.170;2022-07-23T13:21:32;13.10;;;9.05;;
16426;SDS011;8322;-33.900;151.170;2022-07-23T13:24:02;11.32;;;7.95;;
16426;SDS011;8322;-33.900;151.170;2022-07-23T13:26:31;11.45;;;8.73;;
16426;SDS011;8322;-33.900;151.170;2022-07-23T13:29:01;9.65;;;8.23;;
16426;SDS011;8322;-33.900;151.170;2022-07-23T13:31:31;11.88;;;8.45;;
16426;SDS011;8322;-33.900;151.170;2022-07-23T13:34:02;13.82;;;9.13;;
16426;SDS011;8322;-33.900;151.170;2022-07-23T13:36:32;11.48;;;7.95;;
16426;SDS011;8322;-33.900;151.170;2022-07-23T13:39:02;9.98;;;8.40;;
16426;SDS011;8322;-33.900;151.170;2022-07-23T13:41:32;10.60;;;8.02;;
16426;SDS011;8322;-33.900;151.170;2022-07-23T13:44:01;11.43;;;8.25;;
16426;SDS011;8322;-33.900;151.170;2022-07-23T13:46:31;8.88;;;7.75;;
16426;SDS011;8322;-33.900;151.170;2022-07-23T13:49:03;10.05;;;8.18;;
16426;SDS011;8322;-33.900;151.170;2022-07-23T13:51:32;10.15;;;8.18;;
16426;SDS011;8322;-33.900;151.170;2022-07-23T13:54:02;11.07;;;8.30;;
16426;SDS011;8322;-33.900;151.170;2022-07-23T13:56:32;11.82;;;8.43;;
16426;SDS011;8322;-33.900;151.170;2022-07-23T13:59:02;12.05;;;8.52;;
16426;SDS011;8322;-33.900;151.170;2022-07-23T14:01:31;9.18;;;8.00;;
16426;SDS011;8322;-33.900;151.170;2022-07-23T14:04:03;11.82;;;8.73;;
16426;SDS011;8322;-33.900;151.170;2022-07-23T14:06:33;9.88;;;8.20;;
16426;SDS011;8322;-33.900;151.170;2022-07-23T14:09:03;9.65;;;8.00;;
16426;SDS011;8322;-33.900;151.170;2022-07-23T14:11:33;10.52;;;8.20;;
16426;SDS011;8322;-33.900;151.170;2022-07-23T14:14:05;14.30;;;8.73;;
16426;SDS011;8322;-33.900;151.170;2022-07-23T14:16:34;12.10;;;9.55;;
16426;SDS011;8322;-33.900;151.170;2022-07-23T14:19:06;11.90;;;7.75;;
16426;SDS011;8322;-33.900;151.170;2022-07-23T14:21:38;10.95;;;8.00;;
16426;SDS011;8322;-33.900;151.170;2022-07-23T14:24:08;9.82;;;8.00;;
16426;SDS011;8322;-33.900;151.170;2022-07-23T14:26:38;10.48;;;7.70;;
16426;SDS011;8322;-33.900;151.170;2022-07-23T14:29:08;10.25;;;6.85;;
16426;SDS011;8322;-33.900;151.170;2022-07-23T14:31:38;8.50;;;7.10;;
16426;SDS011;8322;-33.900;151.170;2022-07-23T14:34:09;8.73;;;7.28;;
16426;SDS011;8322;-33.900;151.170;2022-07-23T14:36:39;10.40;;;7.90;;
16426;SDS011;8322;-33.900;151.170;2022-07-23T14:39:09;9.18;;;7.60;;
16426;SDS011;8322;-33.900;151.170;2022-07-23T14:41:39;9.45;;;8.20;;
16426;SDS011;8322;-33.900;151.170;2022-07-23T14:44:08;10.52;;;7.97;;
16426;SDS011;8322;-33.900;151.170;2022-07-23T14:46:38;9.98;;;8.18;;